createdAt,value
2023-01-26T00:00:12.347Z,92.77
2023-01-26T00:02:57.877Z,92.69
2023-01-26T00:05:42.069Z,92.73
2023-01-26T00:08:25.980Z,92.73
2023-01-26T00:11:12.325Z,92.12
2023-01-26T00:13:56.706Z,91.86
2023-01-26T00:16:40.887Z,91.88
2023-01-26T00:19:26.025Z,91.98
2023-01-26T00:22:09.846Z,91.88
2023-01-26T00:24:53.618Z,91.70
2023-01-26T00:27:37.384Z,91.67
2023-01-26T00:30:21.839Z,91.21
2023-01-26T00:33:05.716Z,91.63
2023-01-26T00:35:56.726Z,91.80
2023-01-26T00:38:41.153Z,92.04
2023-01-26T00:41:43.525Z,91.68
2023-01-26T00:44:27.342Z,91.26
2023-01-26T00:47:13.085Z,91.58
2023-01-26T00:49:56.880Z,91.29
2023-01-26T00:52:42.141Z,91.39
2023-01-26T00:55:32.342Z,91.45
2023-01-26T00:58:17.277Z,90.57
2023-01-26T01:01:01.075Z,92.11
2023-01-26T01:03:45.089Z,92.19
2023-01-26T01:06:28.988Z,92.86
2023-01-26T01:09:14.083Z,92.16
2023-01-26T01:11:58.011Z,92.41
2023-01-26T01:14:41.730Z,93.32
2023-01-26T01:17:25.484Z,93.37
2023-01-26T01:20:11.950Z,93.34
2023-01-26T01:22:58.345Z,93.57
2023-01-26T01:25:46.199Z,93.26
2023-01-26T01:28:30.079Z,93.80
2023-01-26T01:31:16.918Z,94.06
2023-01-26T01:34:00.746Z,93.46
2023-01-26T01:36:44.604Z,94.19
2023-01-26T01:39:28.413Z,94.19
2023-01-26T01:42:13.996Z,93.82
2023-01-26T01:45:37.303Z,93.77
2023-01-26T01:48:25.855Z,93.21
2023-01-26T01:51:17.994Z,93.64
2023-01-26T01:54:05.808Z,93.75
2023-01-26T01:56:54.419Z,93.44
2023-01-26T01:59:39.636Z,94.47
2023-01-26T02:02:23.456Z,94.51
2023-01-26T02:05:14.451Z,95.42
2023-01-26T02:07:58.714Z,95.39
2023-01-26T02:10:44.931Z,96.34
2023-01-26T02:13:29.568Z,96.66
2023-01-26T02:16:14.716Z,97.16
2023-01-26T02:19:00.381Z,96.73
2023-01-26T02:21:48.004Z,97.87
2023-01-26T02:24:38.469Z,97.51
2023-01-26T02:27:23.643Z,97.40
2023-01-26T02:30:09.915Z,97.34
2023-01-26T02:32:54.570Z,96.99
2023-01-26T02:35:38.508Z,96.69
2023-01-26T02:38:25.351Z,97.42
2023-01-26T02:41:12.276Z,97.43
2023-01-26T02:43:56.403Z,96.37
2023-01-26T02:46:40.443Z,97.37
2023-01-26T02:49:41.902Z,97.66
2023-01-26T02:52:27.795Z,96.96
2023-01-26T02:55:26.533Z,96.21
2023-01-26T02:58:10.635Z,96.50
2023-01-26T03:00:55.866Z,94.90
2023-01-26T03:03:42.876Z,94.97
2023-01-26T03:06:26.733Z,94.66
2023-01-26T03:09:10.566Z,93.40
2023-01-26T03:11:54.483Z,93.90
2023-01-26T03:14:38.277Z,93.28
2023-01-26T03:17:23.510Z,93.31
2023-01-26T03:20:26.366Z,93.84
2023-01-26T03:23:36.435Z,93.32
2023-01-26T03:26:38.381Z,93.28
2023-01-26T03:29:23.545Z,93.73
2023-01-26T03:32:09.254Z,94.29
2023-01-26T03:34:54.714Z,93.97
2023-01-26T03:37:43.619Z,93.15
2023-01-26T03:40:50.069Z,93.43
2023-01-26T03:43:52.136Z,93.15
2023-01-26T03:46:53.098Z,91.86
2023-01-26T03:49:54.767Z,91.00
2023-01-26T03:52:57.319Z,89.85
2023-01-26T03:55:58.736Z,89.27
2023-01-26T03:58:42.559Z,89.03
2023-01-26T04:01:28.158Z,88.47
2023-01-26T04:04:33.020Z,89.76
2023-01-26T04:07:35.168Z,88.96
2023-01-26T04:10:20.980Z,90.04
2023-01-26T04:13:22.381Z,89.91
2023-01-26T04:16:29.559Z,89.93
2023-01-26T04:19:31.156Z,89.12
2023-01-26T04:22:15.181Z,89.82
2023-01-26T04:25:01.201Z,90.03
2023-01-26T04:27:48.560Z,89.63
2023-01-26T04:30:32.716Z,88.83
2023-01-26T04:33:16.447Z,89.57
2023-01-26T04:36:04.732Z,88.81
2023-01-26T04:38:49.602Z,88.95
2023-01-26T04:41:36.083Z,89.27
2023-01-26T04:44:27.623Z,90.35
2023-01-26T04:47:11.627Z,90.26
2023-01-26T04:49:55.854Z,90.60
2023-01-26T04:52:41.042Z,90.48
2023-01-26T04:55:25.136Z,91.20
2023-01-26T04:58:09.069Z,90.79
2023-01-26T05:00:55.451Z,89.54
2023-01-26T05:03:39.214Z,90.41
2023-01-26T05:06:23.204Z,89.48
2023-01-26T05:09:07.901Z,91.76
2023-01-26T05:11:53.749Z,93.69
2023-01-26T05:14:56.084Z,94.12
2023-01-26T05:18:02.769Z,93.33
2023-01-26T05:21:05.299Z,92.26
2023-01-26T05:23:56.520Z,91.70
2023-01-26T05:27:15.242Z,90.65
2023-01-26T05:30:00.668Z,89.98
2023-01-26T05:32:47.117Z,90.11
2023-01-26T05:35:33.532Z,89.78
2023-01-26T05:38:17.802Z,92.68
2023-01-26T05:41:02.200Z,93.02
2023-01-26T05:43:52.571Z,92.26
2023-01-26T05:46:51.462Z,93.08
2023-01-26T05:49:35.484Z,94.58
2023-01-26T05:52:21.933Z,96.85
2023-01-26T05:55:08.148Z,97.67
2023-01-26T05:57:52.052Z,98.34
2023-01-26T06:00:35.911Z,100.00
2023-01-26T06:03:25.805Z,100.00
2023-01-26T06:06:09.522Z,100.00
2023-01-26T06:09:01.108Z,100.00
2023-01-26T06:11:47.785Z,100.00
2023-01-26T06:14:59.316Z,100.00
2023-01-26T06:17:53.422Z,99.67
2023-01-26T06:20:37.321Z,99.14
2023-01-26T06:23:22.764Z,97.55
2023-01-26T06:26:10.764Z,97.26
2023-01-26T06:28:55.763Z,96.86
2023-01-26T06:31:41.706Z,95.89
2023-01-26T06:34:28.813Z,94.81
2023-01-26T06:37:14.181Z,92.57
2023-01-26T06:39:58.547Z,92.46
2023-01-26T06:42:48.926Z,91.27
2023-01-26T06:45:34.918Z,90.68
2023-01-26T06:48:19.135Z,89.39
2023-01-26T06:51:26.328Z,89.47
2023-01-26T06:54:12.026Z,88.36
2023-01-26T06:57:17.824Z,87.39
2023-01-26T07:00:24.214Z,85.14
2023-01-26T07:03:13.784Z,84.28
2023-01-26T07:05:57.851Z,83.79
2023-01-26T07:08:42.032Z,82.74
2023-01-26T07:11:26.522Z,82.40
2023-01-26T07:14:10.292Z,82.09
2023-01-26T07:16:55.496Z,81.08
2023-01-26T07:19:39.284Z,80.39
2023-01-26T07:22:23.133Z,80.24
2023-01-26T07:25:07.415Z,79.13
2023-01-26T07:27:56.953Z,80.38
2023-01-26T07:30:40.805Z,82.23
2023-01-26T07:33:26.133Z,81.45
2023-01-26T07:36:11.234Z,79.77
2023-01-26T07:38:55.153Z,79.36
2023-01-26T07:41:39.055Z,80.31
2023-01-26T07:44:41.980Z,79.91
2023-01-26T07:47:25.772Z,81.92
2023-01-26T07:50:13.892Z,81.88
2023-01-26T07:52:57.708Z,86.64
2023-01-26T07:55:41.582Z,88.80
2023-01-26T07:58:25.339Z,91.04
2023-01-26T08:01:11.213Z,92.16
2023-01-26T08:03:55.401Z,95.02
2023-01-26T08:06:40.659Z,96.72
2023-01-26T08:09:24.896Z,96.58
2023-01-26T08:12:08.761Z,97.67
2023-01-26T08:14:52.681Z,98.92
2023-01-26T08:17:36.500Z,98.78
2023-01-26T08:20:20.701Z,98.62
2023-01-26T08:23:05.857Z,97.82
2023-01-26T08:25:49.684Z,96.13
2023-01-26T08:28:33.560Z,95.15
2023-01-26T08:31:20.411Z,93.24
2023-01-26T08:34:04.649Z,91.16
2023-01-26T08:36:48.452Z,89.97
2023-01-26T08:39:33.578Z,89.06
2023-01-26T08:42:17.402Z,87.19
2023-01-26T08:45:01.321Z,83.86
2023-01-26T08:47:50.533Z,82.69
2023-01-26T08:50:34.265Z,79.92
2023-01-26T08:53:18.177Z,80.81
2023-01-26T08:56:04.824Z,78.83
2023-01-26T08:58:48.923Z,78.93
2023-01-26T09:01:32.752Z,77.98
2023-01-26T09:04:16.635Z,76.08
2023-01-26T09:07:00.705Z,76.05
2023-01-26T09:09:45.070Z,75.92
2023-01-26T09:12:30.452Z,75.70
2023-01-26T09:15:14.525Z,76.09
2023-01-26T09:18:00.739Z,77.80
2023-01-26T09:20:45.888Z,77.25
2023-01-26T09:23:29.897Z,77.02
2023-01-26T09:26:14.085Z,74.95
2023-01-26T09:28:59.611Z,75.26
2023-01-26T09:31:43.910Z,75.88
2023-01-26T09:34:28.754Z,77.14
2023-01-26T09:37:12.707Z,76.41
2023-01-26T09:39:56.695Z,78.19
2023-01-26T09:42:56.791Z,78.98
2023-01-26T09:45:50.331Z,79.21
2023-01-26T09:48:42.596Z,81.01
2023-01-26T09:51:33.501Z,81.55
2023-01-26T09:54:27.959Z,80.71
2023-01-26T09:57:15.659Z,80.67
2023-01-26T10:00:05.773Z,80.32
2023-01-26T10:03:06.510Z,80.52
2023-01-26T10:05:55.211Z,81.17
2023-01-26T10:09:22.620Z,81.31
2023-01-26T10:12:10.046Z,82.96
2023-01-26T10:14:57.615Z,82.21
2023-01-26T10:17:44.321Z,82.21
2023-01-26T10:20:34.447Z,81.48
2023-01-26T10:23:23.079Z,83.77
2023-01-26T10:26:14.461Z,83.52
2023-01-26T10:28:58.985Z,88.42
2023-01-26T10:31:43.058Z,89.00
2023-01-26T10:34:28.904Z,89.03
2023-01-26T10:37:21.881Z,87.46
2023-01-26T10:40:07.983Z,86.39
2023-01-26T10:43:00.059Z,86.05
2023-01-26T10:45:47.945Z,86.93
2023-01-26T10:48:32.028Z,85.81
2023-01-26T10:51:17.526Z,85.75
2023-01-26T10:54:25.557Z,83.71
2023-01-26T10:57:18.717Z,82.27
2023-01-26T11:00:08.327Z,81.78
2023-01-26T11:02:54.707Z,81.30
2023-01-26T11:05:38.488Z,81.15
2023-01-26T11:08:36.048Z,81.32
2023-01-26T11:11:27.781Z,83.28
2023-01-26T11:14:13.939Z,83.87
2023-01-26T11:17:09.916Z,85.46
2023-01-26T11:20:08.930Z,87.49
2023-01-26T11:23:01.750Z,87.16
2023-01-26T11:26:02.942Z,85.53
2023-01-26T11:29:01.974Z,84.54
2023-01-26T11:31:57.551Z,85.12
2023-01-26T11:34:52.623Z,86.10
2023-01-26T11:37:47.205Z,86.74
2023-01-26T11:40:39.025Z,86.18
2023-01-26T11:43:49.505Z,85.61
2023-01-26T11:46:55.783Z,84.47
2023-01-26T11:49:56.363Z,85.29
2023-01-26T11:52:52.767Z,83.16
2023-01-26T11:55:52.306Z,82.80
2023-01-26T11:58:41.716Z,83.52
2023-01-26T12:01:30.195Z,84.00
2023-01-26T12:04:20.250Z,83.29
2023-01-26T12:07:12.163Z,82.76
2023-01-26T12:09:56.384Z,80.95
2023-01-26T12:12:48.041Z,81.76
2023-01-26T12:15:35.775Z,80.90
2023-01-26T12:18:32.269Z,80.19
2023-01-26T12:21:24.264Z,80.69
2023-01-26T12:24:39.128Z,80.17
2023-01-26T12:27:28.032Z,80.07
2023-01-26T12:30:28.421Z,79.49
2023-01-26T12:33:12.640Z,79.20
2023-01-26T12:36:07.555Z,79.36
2023-01-26T12:39:08.780Z,80.76
2023-01-26T12:42:14.300Z,79.40
2023-01-26T12:45:02.153Z,79.04
2023-01-26T12:47:53.440Z,78.58
2023-01-26T12:50:41.003Z,77.58
2023-01-26T12:53:32.100Z,77.32
2023-01-26T12:56:25.171Z,79.08
2023-01-26T12:59:38.661Z,79.52
2023-01-26T13:02:29.612Z,78.19
2023-01-26T13:05:25.764Z,77.87
2023-01-26T13:08:56.961Z,78.53
2023-01-26T13:11:50.845Z,78.87
2023-01-26T13:14:39.922Z,79.51
2023-01-26T13:17:50.868Z,80.48
2023-01-26T13:20:52.639Z,81.52
2023-01-26T13:23:43.966Z,81.53
2023-01-26T13:26:54.221Z,81.67
2023-01-26T13:29:54.864Z,81.32
2023-01-26T13:33:03.296Z,81.68
2023-01-26T13:35:48.148Z,83.49
2023-01-26T13:38:36.859Z,84.09
2023-01-26T13:41:22.396Z,84.16
2023-01-26T13:44:15.558Z,85.37
2023-01-26T13:47:03.268Z,85.05
2023-01-26T13:49:47.174Z,85.29
2023-01-26T13:52:33.875Z,85.05
2023-01-26T13:55:25.733Z,85.53
2023-01-26T13:58:13.012Z,85.13
2023-01-26T14:01:03.383Z,84.10
2023-01-26T14:03:47.649Z,84.83
2023-01-26T14:06:31.830Z,84.59
2023-01-26T14:09:16.792Z,85.18
2023-01-26T14:12:03.233Z,85.65
2023-01-26T14:14:51.134Z,85.60
2023-01-26T14:17:38.095Z,85.75
2023-01-26T14:20:27.558Z,86.61
2023-01-26T14:23:14.856Z,85.04
2023-01-26T14:26:02.001Z,85.58
2023-01-26T14:28:46.884Z,85.72
2023-01-26T14:31:32.413Z,85.26
2023-01-26T14:34:22.488Z,86.43
2023-01-26T14:37:08.730Z,85.63
2023-01-26T14:40:27.790Z,85.79
2023-01-26T14:43:13.857Z,85.10
2023-01-26T14:46:01.578Z,86.18
2023-01-26T14:48:48.945Z,85.62
2023-01-26T14:51:35.373Z,84.75
2023-01-26T14:54:26.395Z,84.59
2023-01-26T14:57:17.994Z,84.85
2023-01-26T15:00:06.443Z,84.20
2023-01-26T15:02:51.115Z,85.07
2023-01-26T15:05:37.556Z,85.45
2023-01-26T15:08:24.435Z,84.20
2023-01-26T15:11:25.879Z,84.52
2023-01-26T15:14:31.789Z,84.49
2023-01-26T15:17:29.574Z,84.76
2023-01-26T15:20:40.721Z,85.83
2023-01-26T15:23:31.457Z,85.53
2023-01-26T15:26:24.408Z,84.75
2023-01-26T15:29:23.558Z,84.50
2023-01-26T15:32:07.632Z,85.80
2023-01-26T15:35:08.703Z,84.86
2023-01-26T15:38:02.044Z,84.81
2023-01-26T15:40:47.259Z,85.19
2023-01-26T15:43:31.076Z,84.60
2023-01-26T15:46:14.832Z,84.52
2023-01-26T15:48:58.789Z,83.97
2023-01-26T15:51:42.577Z,84.41
2023-01-26T15:54:26.473Z,85.70
2023-01-26T15:57:12.222Z,85.18
2023-01-26T15:59:56.092Z,84.50
2023-01-26T16:02:39.995Z,85.94
2023-01-26T16:05:25.720Z,86.43
2023-01-26T16:08:10.366Z,86.08
2023-01-26T16:10:56.842Z,85.80
2023-01-26T16:13:46.459Z,85.92
2023-01-26T16:16:34.938Z,85.37
2023-01-26T16:19:33.745Z,85.12
2023-01-26T16:22:18.971Z,85.17
2023-01-26T16:25:02.869Z,84.10
2023-01-26T16:27:46.834Z,85.19
2023-01-26T16:30:31.987Z,85.12
2023-01-26T16:33:20.443Z,85.66
2023-01-26T16:36:04.449Z,84.94
2023-01-26T16:38:49.096Z,84.42
2023-01-26T16:41:34.342Z,84.61
2023-01-26T16:44:19.642Z,84.27
2023-01-26T16:47:05.980Z,84.37
2023-01-26T16:49:49.899Z,83.12
2023-01-26T16:52:35.521Z,84.83
2023-01-26T16:55:20.307Z,85.40
2023-01-26T16:58:04.095Z,85.12
2023-01-26T17:00:47.971Z,84.04
2023-01-26T17:03:33.569Z,84.33
2023-01-26T17:06:18.813Z,85.04
2023-01-26T17:09:02.665Z,84.68
2023-01-26T17:11:46.529Z,84.12
2023-01-26T17:14:30.328Z,84.53
2023-01-26T17:17:14.217Z,84.45
2023-01-26T17:20:16.504Z,83.66
2023-01-26T17:23:01.970Z,83.71
2023-01-26T17:25:45.756Z,83.90
2023-01-26T17:28:29.522Z,83.91
2023-01-26T17:31:17.619Z,83.93
2023-01-26T17:34:01.576Z,84.25
2023-01-26T17:36:46.924Z,84.39
2023-01-26T17:39:30.769Z,84.69
2023-01-26T17:42:14.959Z,83.74
2023-01-26T17:44:58.825Z,84.42
2023-01-26T17:47:43.640Z,84.78
2023-01-26T17:50:27.493Z,85.54
2023-01-26T17:53:12.684Z,85.61
2023-01-26T17:55:56.522Z,85.25
2023-01-26T17:58:41.664Z,85.51
2023-01-26T18:01:28.134Z,86.61
2023-01-26T18:04:12.256Z,85.86
2023-01-26T18:06:56.327Z,87.14
2023-01-26T18:09:41.771Z,86.78
2023-01-26T18:12:25.877Z,87.67
2023-01-26T18:15:10.260Z,86.59
2023-01-26T18:17:54.474Z,88.24
2023-01-26T18:20:38.450Z,87.38
2023-01-26T18:23:23.889Z,88.11
2023-01-26T18:26:09.190Z,88.31
2023-01-26T18:28:53.537Z,87.92
2023-01-26T18:31:40.904Z,88.30
2023-01-26T18:34:25.032Z,89.04
2023-01-26T18:37:09.813Z,87.81
2023-01-26T18:39:55.082Z,88.46
2023-01-26T18:42:40.584Z,88.58
2023-01-26T18:45:26.391Z,89.04
2023-01-26T18:48:10.647Z,88.80
2023-01-26T18:50:54.611Z,87.57
2023-01-26T18:53:40.349Z,87.33
2023-01-26T18:56:24.797Z,87.66
2023-01-26T18:59:10.917Z,87.92
2023-01-26T19:01:55.564Z,88.96
2023-01-26T19:04:40.971Z,88.50
2023-01-26T19:07:25.333Z,87.92
2023-01-26T19:10:10.549Z,86.97
2023-01-26T19:12:56.231Z,87.62
2023-01-26T19:15:45.320Z,89.14
2023-01-26T19:18:29.543Z,88.28
2023-01-26T19:21:14.432Z,86.08
2023-01-26T19:24:02.888Z,86.15
2023-01-26T19:26:47.029Z,85.86
2023-01-26T19:29:31.168Z,86.27
2023-01-26T19:32:16.789Z,86.25
2023-01-26T19:35:00.898Z,86.08
2023-01-26T19:37:47.185Z,85.34
2023-01-26T19:40:32.161Z,85.38
2023-01-26T19:43:19.562Z,85.40
2023-01-26T19:46:05.911Z,84.60
2023-01-26T19:48:51.894Z,85.38
2023-01-26T19:51:36.003Z,84.90
2023-01-26T19:54:20.209Z,84.89
2023-01-26T19:57:04.915Z,82.82
2023-01-26T19:59:49.267Z,82.53
2023-01-26T20:02:34.519Z,83.82
2023-01-26T20:05:21.473Z,84.43
2023-01-26T20:08:06.669Z,85.10
2023-01-26T20:10:50.802Z,83.94
2023-01-26T20:13:36.084Z,84.59
2023-01-26T20:16:20.134Z,83.99
2023-01-26T20:19:05.028Z,82.35
2023-01-26T20:21:50.961Z,82.69
2023-01-26T20:24:34.813Z,84.43
2023-01-26T20:27:19.468Z,84.07
2023-01-26T20:30:03.381Z,84.44
2023-01-26T20:32:47.932Z,83.24
2023-01-26T20:35:32.458Z,84.61
2023-01-26T20:38:17.569Z,84.39
2023-01-26T20:41:01.418Z,84.50
2023-01-26T20:43:59.643Z,84.15
2023-01-26T20:46:44.779Z,84.02
2023-01-26T20:49:28.814Z,84.61
2023-01-26T20:52:12.725Z,83.66
2023-01-26T20:54:58.015Z,83.47
2023-01-26T20:57:41.999Z,84.35
2023-01-26T21:00:26.058Z,84.57
2023-01-26T21:03:10.305Z,84.96
2023-01-26T21:05:54.589Z,84.79
2023-01-26T21:08:38.900Z,84.80
2023-01-26T21:11:26.402Z,83.91
2023-01-26T21:14:13.553Z,85.80
2023-01-26T21:16:57.785Z,85.41
2023-01-26T21:19:41.795Z,85.21
2023-01-26T21:22:25.678Z,84.97
2023-01-26T21:25:10.889Z,84.38
2023-01-26T21:27:56.110Z,85.42
2023-01-26T21:30:39.988Z,84.04
2023-01-26T21:33:23.806Z,84.95
2023-01-26T21:36:09.517Z,85.76
2023-01-26T21:38:55.868Z,85.62
2023-01-26T21:41:59.241Z,84.99
2023-01-26T21:45:02.186Z,84.90
2023-01-26T21:48:07.127Z,85.65
2023-01-26T21:51:13.921Z,84.99
2023-01-26T21:53:57.650Z,85.13
2023-01-26T21:56:42.030Z,85.71
2023-01-26T21:59:26.206Z,85.61
2023-01-26T22:02:11.855Z,86.16
2023-01-26T22:04:55.844Z,86.12
2023-01-26T22:07:39.582Z,85.18
2023-01-26T22:10:23.425Z,84.82
2023-01-26T22:13:07.393Z,84.35
2023-01-26T22:15:51.573Z,84.62
2023-01-26T22:18:37.013Z,85.87
2023-01-26T22:21:21.812Z,85.49
2023-01-26T22:24:06.691Z,86.40
2023-01-26T22:26:50.577Z,85.68
2023-01-26T22:29:34.367Z,84.73
2023-01-26T22:32:18.106Z,84.74
2023-01-26T22:35:03.790Z,85.02
2023-01-26T22:37:47.743Z,85.85
2023-01-26T22:40:31.670Z,86.60
2023-01-26T22:43:15.616Z,86.83
2023-01-26T22:46:03.498Z,85.82
2023-01-26T22:48:47.467Z,85.83
2023-01-26T22:51:37.115Z,86.09
2023-01-26T22:54:21.131Z,84.96
2023-01-26T22:57:05.169Z,86.20
2023-01-26T22:59:49.426Z,84.68
2023-01-26T23:02:33.204Z,84.98
2023-01-26T23:05:17.271Z,84.57
2023-01-26T23:08:03.291Z,85.85
2023-01-26T23:10:47.083Z,86.13
2023-01-26T23:13:31.280Z,84.80
2023-01-26T23:16:15.279Z,84.24
2023-01-26T23:18:59.962Z,83.31
2023-01-26T23:21:43.730Z,84.19
2023-01-26T23:24:29.067Z,83.32
2023-01-26T23:27:12.876Z,84.07
2023-01-26T23:29:56.640Z,84.24
2023-01-26T23:32:40.468Z,85.05
2023-01-26T23:35:26.463Z,84.02
2023-01-26T23:38:11.233Z,83.86
2023-01-26T23:40:56.730Z,84.63
2023-01-26T23:43:40.921Z,85.37
2023-01-26T23:46:24.811Z,85.51
2023-01-26T23:49:08.616Z,84.40
2023-01-26T23:51:52.491Z,84.14
2023-01-26T23:54:36.284Z,84.75
2023-01-26T23:57:21.422Z,85.23
